sensor_id;sensor_type;location;lat;lon;timestamp;P1;durP1;ratioP1;P2;durP2;ratioP2
54261;SDS011;40174;52.364;6.452;2023-05-07T00:00:50;20.30;;;10.73;;
54261;SDS011;40174;52.364;6.452;2023-05-07T00:03:17;17.35;;;10.27;;
54261;SDS011;40174;52.364;6.452;2023-05-07T00:05:44;19.58;;;10.00;;
54261;SDS011;40174;52.364;6.452;2023-05-07T00:08:11;17.38;;;9.52;;
54261;SDS011;40174;52.364;6.452;2023-05-07T00:10:38;18.63;;;9.93;;
54261;SDS011;40174;52.364;6.452;2023-05-07T00:13:04;18.00;;;10.07;;
54261;SDS011;40174;52.364;6.452;2023-05-07T00:15:32;20.75;;;10.43;;
54261;SDS011;40174;52.364;6.452;2023-05-07T00:17:59;17.88;;;10.07;;
54261;SDS011;40174;52.364;6.452;2023-05-07T00:20:26;19.15;;;10.77;;
54261;SDS011;40174;52.364;6.452;2023-05-07T00:22:52;19.23;;;10.60;;
54261;SDS011;40174;52.364;6.452;2023-05-07T00:25:19;19.75;;;11.20;;
54261;SDS011;40174;52.364;6.452;2023-05-07T00:27:46;17.98;;;10.07;;
54261;SDS011;40174;52.364;6.452;2023-05-07T00:30:12;20.95;;;11.27;;
54261;SDS011;40174;52.364;6.452;2023-05-07T00:32:41;21.13;;;11.13;;
54261;SDS011;40174;52.364;6.452;2023-05-07T00:35:10;18.65;;;9.85;;
54261;SDS011;40174;52.364;6.452;2023-05-07T00:37:37;20.17;;;11.05;;
54261;SDS011;40174;52.364;6.452;2023-05-07T00:40:04;24.58;;;11.70;;
54261;SDS011;40174;52.364;6.452;2023-05-07T00:42:32;19.92;;;11.00;;
54261;SDS011;40174;52.364;6.452;2023-05-07T00:44:59;22.08;;;11.90;;
54261;SDS011;40174;52.364;6.452;2023-05-07T00:47:26;21.88;;;12.05;;
54261;SDS011;40174;52.364;6.452;2023-05-07T00:49:54;22.30;;;13.38;;
54261;SDS011;40174;52.364;6.452;2023-05-07T00:52:21;24.35;;;13.45;;
54261;SDS011;40174;52.364;6.452;2023-05-07T00:54:51;25.27;;;14.27;;
54261;SDS011;40174;52.364;6.452;2023-05-07T00:57:18;27.85;;;14.52;;
54261;SDS011;40174;52.364;6.452;2023-05-07T00:59:46;24.45;;;13.30;;
54261;SDS011;40174;52.364;6.452;2023-05-07T01:02:14;24.25;;;13.63;;
54261;SDS011;40174;52.364;6.452;2023-05-07T01:04:41;25.23;;;14.30;;
54261;SDS011;40174;52.364;6.452;2023-05-07T01:07:09;28.60;;;14.52;;
54261;SDS011;40174;52.364;6.452;2023-05-07T01:09:36;26.77;;;14.40;;
54261;SDS011;40174;52.364;6.452;2023-05-07T01:12:03;24.73;;;14.02;;
54261;SDS011;40174;52.364;6.452;2023-05-07T01:14:31;26.17;;;14.32;;
54261;SDS011;40174;52.364;6.452;2023-05-07T01:16:58;25.08;;;13.63;;
54261;SDS011;40174;52.364;6.452;2023-05-07T01:19:25;27.23;;;14.55;;
54261;SDS011;40174;52.364;6.452;2023-05-07T01:21:52;27.20;;;15.10;;
54261;SDS011;40174;52.364;6.452;2023-05-07T01:24:30;25.45;;;14.25;;
54261;SDS011;40174;52.364;6.452;2023-05-07T01:26:58;24.98;;;13.80;;
54261;SDS011;40174;52.364;6.452;2023-05-07T01:29:29;26.95;;;14.80;;
54261;SDS011;40174;52.364;6.452;2023-05-07T01:31:56;27.45;;;14.55;;
54261;SDS011;40174;52.364;6.452;2023-05-07T01:34:25;27.38;;;14.35;;
54261;SDS011;40174;52.364;6.452;2023-05-07T01:44:29;21.60;;;12.85;;
54261;SDS011;40174;52.364;6.452;2023-05-07T01:46:56;29.25;;;13.32;;
54261;SDS011;40174;52.364;6.452;2023-05-07T01:49:23;25.08;;;13.30;;
54261;SDS011;40174;52.364;6.452;2023-05-07T01:51:50;23.33;;;12.90;;
54261;SDS011;40174;52.364;6.452;2023-05-07T01:54:17;24.67;;;13.30;;
54261;SDS011;40174;52.364;6.452;2023-05-07T01:56:46;22.10;;;13.00;;
54261;SDS011;40174;52.364;6.452;2023-05-07T01:59:13;24.33;;;13.98;;
54261;SDS011;40174;52.364;6.452;2023-05-07T02:01:41;21.40;;;12.63;;
54261;SDS011;40174;52.364;6.452;2023-05-07T02:04:09;23.35;;;12.02;;
54261;SDS011;40174;52.364;6.452;2023-05-07T02:06:36;22.75;;;12.60;;
54261;SDS011;40174;52.364;6.452;2023-05-07T02:09:04;22.15;;;12.85;;
54261;SDS011;40174;52.364;6.452;2023-05-07T02:11:31;20.70;;;11.27;;
54261;SDS011;40174;52.364;6.452;2023-05-07T02:13:58;19.13;;;10.65;;
54261;SDS011;40174;52.364;6.452;2023-05-07T02:16:25;18.30;;;9.95;;
54261;SDS011;40174;52.364;6.452;2023-05-07T02:18:55;18.83;;;10.68;;
54261;SDS011;40174;52.364;6.452;2023-05-07T02:21:23;19.65;;;11.00;;
54261;SDS011;40174;52.364;6.452;2023-05-07T02:23:50;22.23;;;10.27;;
54261;SDS011;40174;52.364;6.452;2023-05-07T02:26:16;20.48;;;10.52;;
54261;SDS011;40174;52.364;6.452;2023-05-07T02:28:43;18.88;;;9.88;;
54261;SDS011;40174;52.364;6.452;2023-05-07T02:31:10;18.90;;;9.85;;
54261;SDS011;40174;52.364;6.452;2023-05-07T02:33:37;17.95;;;9.57;;
54261;SDS011;40174;52.364;6.452;2023-05-07T02:36:08;19.30;;;10.07;;
54261;SDS011;40174;52.364;6.452;2023-05-07T02:38:42;18.88;;;9.00;;
54261;SDS011;40174;52.364;6.452;2023-05-07T02:41:09;20.42;;;8.82;;
54261;SDS011;40174;52.364;6.452;2023-05-07T02:43:36;19.75;;;9.35;;
54261;SDS011;40174;52.364;6.452;2023-05-07T02:46:03;17.92;;;9.68;;
54261;SDS011;40174;52.364;6.452;2023-05-07T02:48:31;18.67;;;9.25;;
54261;SDS011;40174;52.364;6.452;2023-05-07T02:50:58;18.50;;;8.88;;
54261;SDS011;40174;52.364;6.452;2023-05-07T02:53:27;21.85;;;9.73;;
54261;SDS011;40174;52.364;6.452;2023-05-07T02:55:55;19.17;;;10.20;;
54261;SDS011;40174;52.364;6.452;2023-05-07T02:58:22;22.95;;;10.68;;
54261;SDS011;40174;52.364;6.452;2023-05-07T03:00:49;25.48;;;10.57;;
54261;SDS011;40174;52.364;6.452;2023-05-07T03:03:25;22.33;;;10.52;;
54261;SDS011;40174;52.364;6.452;2023-05-07T03:05:52;20.10;;;10.30;;
54261;SDS011;40174;52.364;6.452;2023-05-07T03:08:18;25.75;;;11.55;;
54261;SDS011;40174;52.364;6.452;2023-05-07T03:10:46;20.65;;;9.85;;
54261;SDS011;40174;52.364;6.452;2023-05-07T03:13:13;22.45;;;11.20;;
54261;SDS011;40174;52.364;6.452;2023-05-07T03:15:40;24.98;;;11.27;;
54261;SDS011;40174;52.364;6.452;2023-05-07T03:18:06;20.55;;;10.63;;
54261;SDS011;40174;52.364;6.452;2023-05-07T03:20:33;26.05;;;12.05;;
54261;SDS011;40174;52.364;6.452;2023-05-07T03:23:01;21.17;;;11.20;;
54261;SDS011;40174;52.364;6.452;2023-05-07T03:25:28;25.02;;;11.18;;
54261;SDS011;40174;52.364;6.452;2023-05-07T03:27:57;23.58;;;11.13;;
54261;SDS011;40174;52.364;6.452;2023-05-07T03:30:31;27.50;;;11.57;;
54261;SDS011;40174;52.364;6.452;2023-05-07T03:32:58;23.85;;;11.88;;
54261;SDS011;40174;52.364;6.452;2023-05-07T03:35:25;30.60;;;11.65;;
54261;SDS011;40174;52.364;6.452;2023-05-07T03:37:52;22.38;;;11.77;;
54261;SDS011;40174;52.364;6.452;2023-05-07T03:40:20;21.50;;;11.07;;
54261;SDS011;40174;52.364;6.452;2023-05-07T03:42:50;22.58;;;10.93;;
54261;SDS011;40174;52.364;6.452;2023-05-07T03:45:20;25.10;;;11.98;;
54261;SDS011;40174;52.364;6.452;2023-05-07T03:47:56;24.08;;;11.73;;
54261;SDS011;40174;52.364;6.452;2023-05-07T03:50:23;22.55;;;11.48;;
54261;SDS011;40174;52.364;6.452;2023-05-07T03:52:50;27.80;;;12.50;;
54261;SDS011;40174;52.364;6.452;2023-05-07T03:55:19;23.45;;;11.65;;
54261;SDS011;40174;52.364;6.452;2023-05-07T03:57:54;23.35;;;12.57;;
54261;SDS011;40174;52.364;6.452;2023-05-07T04:00:24;26.60;;;11.93;;
54261;SDS011;40174;52.364;6.452;2023-05-07T04:02:51;26.80;;;11.32;;
54261;SDS011;40174;52.364;6.452;2023-05-07T04:05:24;24.65;;;11.85;;
54261;SDS011;40174;52.364;6.452;2023-05-07T04:07:57;24.52;;;11.88;;
54261;SDS011;40174;52.364;6.452;2023-05-07T04:10:30;24.23;;;11.63;;
54261;SDS011;40174;52.364;6.452;2023-05-07T04:12:59;25.67;;;12.55;;
54261;SDS011;40174;52.364;6.452;2023-05-07T04:15:28;23.83;;;11.25;;
54261;SDS011;40174;52.364;6.452;2023-05-07T04:17:55;23.88;;;11.93;;
54261;SDS011;40174;52.364;6.452;2023-05-07T04:20:24;33.00;;;13.00;;
54261;SDS011;40174;52.364;6.452;2023-05-07T04:22:57;26.35;;;11.65;;
54261;SDS011;40174;52.364;6.452;2023-05-07T04:25:25;25.73;;;12.80;;
54261;SDS011;40174;52.364;6.452;2023-05-07T04:27:54;31.90;;;12.60;;
54261;SDS011;40174;52.364;6.452;2023-05-07T04:30:24;27.73;;;12.35;;
54261;SDS011;40174;52.364;6.452;2023-05-07T04:32:52;27.80;;;10.90;;
54261;SDS011;40174;52.364;6.452;2023-05-07T04:35:20;27.48;;;12.30;;
54261;SDS011;40174;52.364;6.452;2023-05-07T04:37:47;30.02;;;13.10;;
54261;SDS011;40174;52.364;6.452;2023-05-07T04:40:14;26.52;;;12.27;;
54261;SDS011;40174;52.364;6.452;2023-05-07T04:42:42;28.80;;;13.00;;
54261;SDS011;40174;52.364;6.452;2023-05-07T04:45:09;32.00;;;13.18;;
54261;SDS011;40174;52.364;6.452;2023-05-07T04:47:39;32.13;;;12.50;;
54261;SDS011;40174;52.364;6.452;2023-05-07T04:50:09;23.80;;;11.82;;
54261;SDS011;40174;52.364;6.452;2023-05-07T04:52:37;25.25;;;12.02;;
54261;SDS011;40174;52.364;6.452;2023-05-07T04:55:04;29.88;;;13.18;;
54261;SDS011;40174;52.364;6.452;2023-05-07T04:57:36;26.55;;;12.27;;
54261;SDS011;40174;52.364;6.452;2023-05-07T05:00:05;26.85;;;12.52;;
54261;SDS011;40174;52.364;6.452;2023-05-07T05:02:35;26.50;;;13.45;;
54261;SDS011;40174;52.364;6.452;2023-05-07T05:05:02;25.80;;;12.27;;
54261;SDS011;40174;52.364;6.452;2023-05-07T05:07:30;30.27;;;12.85;;
54261;SDS011;40174;52.364;6.452;2023-05-07T05:09:57;25.70;;;11.93;;
54261;SDS011;40174;52.364;6.452;2023-05-07T05:12:24;26.70;;;13.30;;
54261;SDS011;40174;52.364;6.452;2023-05-07T05:14:51;28.42;;;13.52;;
54261;SDS011;40174;52.364;6.452;2023-05-07T05:17:18;26.35;;;12.60;;
54261;SDS011;40174;52.364;6.452;2023-05-07T05:19:45;26.65;;;13.07;;
54261;SDS011;40174;52.364;6.452;2023-05-07T05:22:12;27.33;;;12.40;;
54261;SDS011;40174;52.364;6.452;2023-05-07T05:24:40;26.38;;;12.23;;
54261;SDS011;40174;52.364;6.452;2023-05-07T05:27:07;25.38;;;12.55;;
54261;SDS011;40174;52.364;6.452;2023-05-07T05:29:34;28.08;;;13.88;;
54261;SDS011;40174;52.364;6.452;2023-05-07T05:32:01;29.85;;;13.52;;
54261;SDS011;40174;52.364;6.452;2023-05-07T05:34:29;27.13;;;12.68;;
54261;SDS011;40174;52.364;6.452;2023-05-07T05:36:56;29.60;;;12.98;;
54261;SDS011;40174;52.364;6.452;2023-05-07T05:39:24;30.90;;;14.18;;
54261;SDS011;40174;52.364;6.452;2023-05-07T05:41:52;30.48;;;14.20;;
54261;SDS011;40174;52.364;6.452;2023-05-07T05:44:20;33.75;;;13.57;;
54261;SDS011;40174;52.364;6.452;2023-05-07T05:46:47;29.13;;;13.25;;
54261;SDS011;40174;52.364;6.452;2023-05-07T05:49:15;31.08;;;14.13;;
54261;SDS011;40174;52.364;6.452;2023-05-07T05:51:42;30.08;;;13.77;;
54261;SDS011;40174;52.364;6.452;2023-05-07T05:54:09;30.83;;;14.38;;
54261;SDS011;40174;52.364;6.452;2023-05-07T05:56:36;28.90;;;13.23;;
54261;SDS011;40174;52.364;6.452;2023-05-07T05:59:04;32.65;;;13.82;;
54261;SDS011;40174;52.364;6.452;2023-05-07T06:01:31;34.65;;;13.73;;
54261;SDS011;40174;52.364;6.452;2023-05-07T06:04:01;31.08;;;14.57;;
54261;SDS011;40174;52.364;6.452;2023-05-07T06:06:28;31.73;;;14.65;;
54261;SDS011;40174;52.364;6.452;2023-05-07T06:08:57;31.23;;;13.90;;
54261;SDS011;40174;52.364;6.452;2023-05-07T06:11:31;31.77;;;14.93;;
54261;SDS011;40174;52.364;6.452;2023-05-07T06:13:57;34.38;;;15.40;;
54261;SDS011;40174;52.364;6.452;2023-05-07T06:16:26;33.13;;;14.77;;
54261;SDS011;40174;52.364;6.452;2023-05-07T06:18:53;32.67;;;14.57;;
54261;SDS011;40174;52.364;6.452;2023-05-07T06:21:20;32.55;;;14.77;;
54261;SDS011;40174;52.364;6.452;2023-05-07T06:23:47;32.40;;;14.65;;
54261;SDS011;40174;52.364;6.452;2023-05-07T06:26:13;35.35;;;16.48;;
54261;SDS011;40174;52.364;6.452;2023-05-07T06:28:43;31.45;;;14.05;;
54261;SDS011;40174;52.364;6.452;2023-05-07T06:31:12;36.08;;;16.05;;
54261;SDS011;40174;52.364;6.452;2023-05-07T06:33:44;35.65;;;15.55;;
54261;SDS011;40174;52.364;6.452;2023-05-07T06:36:11;32.40;;;15.27;;
54261;SDS011;40174;52.364;6.452;2023-05-07T06:38:38;33.30;;;15.75;;
54261;SDS011;40174;52.364;6.452;2023-05-07T06:41:05;35.33;;;14.80;;
54261;SDS011;40174;52.364;6.452;2023-05-07T06:43:32;33.15;;;15.05;;
54261;SDS011;40174;52.364;6.452;2023-05-07T06:46:31;32.15;;;14.88;;
54261;SDS011;40174;52.364;6.452;2023-05-07T06:48:59;31.48;;;14.07;;
54261;SDS011;40174;52.364;6.452;2023-05-07T06:51:26;31.05;;;14.18;;
54261;SDS011;40174;52.364;6.452;2023-05-07T06:53:54;30.60;;;14.93;;
54261;SDS011;40174;52.364;6.452;2023-05-07T06:56:21;32.15;;;15.07;;
54261;SDS011;40174;52.364;6.452;2023-05-07T06:58:48;32.17;;;15.23;;
54261;SDS011;40174;52.364;6.452;2023-05-07T07:01:16;35.50;;;14.88;;
54261;SDS011;40174;52.364;6.452;2023-05-07T07:03:43;35.97;;;16.25;;
54261;SDS011;40174;52.364;6.452;2023-05-07T07:06:11;31.52;;;13.82;;
54261;SDS011;40174;52.364;6.452;2023-05-07T07:08:38;33.80;;;13.82;;
54261;SDS011;40174;52.364;6.452;2023-05-07T07:11:07;35.30;;;15.85;;
54261;SDS011;40174;52.364;6.452;2023-05-07T07:13:35;33.38;;;14.93;;
54261;SDS011;40174;52.364;6.452;2023-05-07T07:16:02;35.95;;;15.20;;
54261;SDS011;40174;52.364;6.452;2023-05-07T07:18:29;31.48;;;14.48;;
54261;SDS011;40174;52.364;6.452;2023-05-07T07:20:57;32.20;;;14.57;;
54261;SDS011;40174;52.364;6.452;2023-05-07T07:23:26;34.67;;;15.73;;
54261;SDS011;40174;52.364;6.452;2023-05-07T07:25:53;34.03;;;14.70;;
54261;SDS011;40174;52.364;6.452;2023-05-07T07:28:20;32.45;;;15.45;;
54261;SDS011;40174;52.364;6.452;2023-05-07T07:30:48;31.52;;;14.48;;
54261;SDS011;40174;52.364;6.452;2023-05-07T07:33:15;40.17;;;15.73;;
54261;SDS011;40174;52.364;6.452;2023-05-07T07:35:42;30.50;;;14.90;;
54261;SDS011;40174;52.364;6.452;2023-05-07T07:38:10;31.52;;;13.65;;
54261;SDS011;40174;52.364;6.452;2023-05-07T07:40:38;34.03;;;15.93;;
54261;SDS011;40174;52.364;6.452;2023-05-07T07:43:07;32.65;;;15.98;;
54261;SDS011;40174;52.364;6.452;2023-05-07T07:45:34;29.63;;;14.43;;
54261;SDS011;40174;52.364;6.452;2023-05-07T07:48:00;30.73;;;14.13;;
54261;SDS011;40174;52.364;6.452;2023-05-07T07:50:29;30.63;;;15.25;;
54261;SDS011;40174;52.364;6.452;2023-05-07T07:52:56;31.70;;;14.23;;
54261;SDS011;40174;52.364;6.452;2023-05-07T07:55:22;29.02;;;14.43;;
54261;SDS011;40174;52.364;6.452;2023-05-07T07:57:53;31.75;;;14.23;;
54261;SDS011;40174;52.364;6.452;2023-05-07T08:00:21;29.77;;;14.23;;
54261;SDS011;40174;52.364;6.452;2023-05-07T08:02:51;29.98;;;14.55;;
54261;SDS011;40174;52.364;6.452;2023-05-07T08:05:24;28.73;;;13.60;;
54261;SDS011;40174;52.364;6.452;2023-05-07T08:07:51;28.25;;;13.52;;
54261;SDS011;40174;52.364;6.452;2023-05-07T08:10:22;32.25;;;14.43;;
54261;SDS011;40174;52.364;6.452;2023-05-07T08:12:56;27.75;;;12.75;;
54261;SDS011;40174;52.364;6.452;2023-05-07T08:15:23;29.85;;;13.52;;
54261;SDS011;40174;52.364;6.452;2023-05-07T08:17:50;28.88;;;13.82;;
54261;SDS011;40174;52.364;6.452;2023-05-07T08:20:17;31.52;;;13.85;;
54261;SDS011;40174;52.364;6.452;2023-05-07T08:22:44;28.55;;;13.88;;
54261;SDS011;40174;52.364;6.452;2023-05-07T08:25:11;29.52;;;13.68;;
54261;SDS011;40174;52.364;6.452;2023-05-07T08:27:37;27.60;;;12.82;;
54261;SDS011;40174;52.364;6.452;2023-05-07T08:30:06;26.98;;;12.90;;
54261;SDS011;40174;52.364;6.452;2023-05-07T08:32:34;29.88;;;13.80;;
54261;SDS011;40174;52.364;6.452;2023-05-07T08:35:01;26.75;;;13.43;;
54261;SDS011;40174;52.364;6.452;2023-05-07T08:37:27;28.88;;;14.60;;
54261;SDS011;40174;52.364;6.452;2023-05-07T08:39:54;26.98;;;13.73;;
54261;SDS011;40174;52.364;6.452;2023-05-07T08:42:25;28.02;;;13.40;;
54261;SDS011;40174;52.364;6.452;2023-05-07T08:44:55;27.80;;;13.35;;
54261;SDS011;40174;52.364;6.452;2023-05-07T08:47:27;28.75;;;12.80;;
54261;SDS011;40174;52.364;6.452;2023-05-07T08:49:59;28.38;;;13.18;;
54261;SDS011;40174;52.364;6.452;2023-05-07T08:52:27;32.58;;;14.60;;
54261;SDS011;40174;52.364;6.452;2023-05-07T08:54:53;27.63;;;12.90;;
54261;SDS011;40174;52.364;6.452;2023-05-07T08:57:21;32.65;;;14.60;;
54261;SDS011;40174;52.364;6.452;2023-05-07T08:59:49;27.40;;;13.25;;
54261;SDS011;40174;52.364;6.452;2023-05-07T09:02:16;27.92;;;13.68;;
54261;SDS011;40174;52.364;6.452;2023-05-07T09:04:44;27.75;;;12.95;;
54261;SDS011;40174;52.364;6.452;2023-05-07T09:07:11;31.05;;;15.23;;
54261;SDS011;40174;52.364;6.452;2023-05-07T09:09:42;28.73;;;13.23;;
54261;SDS011;40174;52.364;6.452;2023-05-07T09:12:11;27.38;;;12.80;;
54261;SDS011;40174;52.364;6.452;2023-05-07T09:14:38;29.90;;;13.93;;
54261;SDS011;40174;52.364;6.452;2023-05-07T09:17:05;29.52;;;14.07;;
54261;SDS011;40174;52.364;6.452;2023-05-07T09:19:32;32.28;;;13.73;;
54261;SDS011;40174;52.364;6.452;2023-05-07T09:22:03;26.95;;;13.00;;
54261;SDS011;40174;52.364;6.452;2023-05-07T09:24:44;27.75;;;14.15;;
54261;SDS011;40174;52.364;6.452;2023-05-07T09:27:14;34.33;;;14.57;;
54261;SDS011;40174;52.364;6.452;2023-05-07T09:29:43;33.83;;;15.30;;
54261;SDS011;40174;52.364;6.452;2023-05-07T09:32:11;31.48;;;13.95;;
54261;SDS011;40174;52.364;6.452;2023-05-07T09:34:38;31.63;;;14.40;;
54261;SDS011;40174;52.364;6.452;2023-05-07T09:37:08;27.42;;;13.68;;
54261;SDS011;40174;52.364;6.452;2023-05-07T09:39:40;31.40;;;15.07;;
54261;SDS011;40174;52.364;6.452;2023-05-07T09:42:09;31.13;;;14.18;;
54261;SDS011;40174;52.364;6.452;2023-05-07T09:44:37;27.65;;;13.48;;
54261;SDS011;40174;52.364;6.452;2023-05-07T09:47:08;32.50;;;14.63;;
54261;SDS011;40174;52.364;6.452;2023-05-07T09:49:42;31.13;;;14.63;;
54261;SDS011;40174;52.364;6.452;2023-05-07T09:52:18;28.15;;;13.63;;
54261;SDS011;40174;52.364;6.452;2023-05-07T09:54:50;25.58;;;13.18;;
54261;SDS011;40174;52.364;6.452;2023-05-07T09:57:20;30.92;;;13.82;;
54261;SDS011;40174;52.364;6.452;2023-05-07T09:59:53;29.63;;;13.93;;
54261;SDS011;40174;52.364;6.452;2023-05-07T10:02:23;28.60;;;14.07;;
54261;SDS011;40174;52.364;6.452;2023-05-07T10:04:52;32.20;;;13.70;;
54261;SDS011;40174;52.364;6.452;2023-05-07T10:07:27;29.92;;;13.98;;
54261;SDS011;40174;52.364;6.452;2023-05-07T10:09:57;25.50;;;13.15;;
54261;SDS011;40174;52.364;6.452;2023-05-07T10:12:32;30.80;;;14.07;;
54261;SDS011;40174;52.364;6.452;2023-05-07T10:15:05;24.60;;;12.93;;
54261;SDS011;40174;52.364;6.452;2023-05-07T10:17:33;28.95;;;13.40;;
54261;SDS011;40174;52.364;6.452;2023-05-07T10:20:01;26.92;;;11.82;;
54261;SDS011;40174;52.364;6.452;2023-05-07T10:22:31;28.35;;;13.10;;
54261;SDS011;40174;52.364;6.452;2023-05-07T10:25:04;25.65;;;13.23;;
54261;SDS011;40174;52.364;6.452;2023-05-07T10:27:36;28.23;;;13.32;;
54261;SDS011;40174;52.364;6.452;2023-05-07T10:30:07;27.27;;;12.57;;
54261;SDS011;40174;52.364;6.452;2023-05-07T10:32:42;28.42;;;12.98;;
54261;SDS011;40174;52.364;6.452;2023-05-07T10:35:18;28.75;;;12.35;;
54261;SDS011;40174;52.364;6.452;2023-05-07T10:37:49;23.77;;;12.00;;
54261;SDS011;40174;52.364;6.452;2023-05-07T10:40:19;28.17;;;12.23;;
54261;SDS011;40174;52.364;6.452;2023-05-07T10:42:54;25.42;;;12.13;;
54261;SDS011;40174;52.364;6.452;2023-05-07T10:45:23;27.80;;;13.10;;
54261;SDS011;40174;52.364;6.452;2023-05-07T10:48:11;25.48;;;12.40;;
54261;SDS011;40174;52.364;6.452;2023-05-07T10:50:41;25.23;;;12.27;;
54261;SDS011;40174;52.364;6.452;2023-05-07T10:53:26;22.60;;;11.25;;
54261;SDS011;40174;52.364;6.452;2023-05-07T11:02:21;23.40;;;11.73;;
54261;SDS011;40174;52.364;6.452;2023-05-07T11:07:54;24.88;;;11.98;;
54261;SDS011;40174;52.364;6.452;2023-05-07T11:16:16;24.02;;;12.82;;
54261;SDS011;40174;52.364;6.452;2023-05-07T11:18:48;22.40;;;11.55;;
54261;SDS011;40174;52.364;6.452;2023-05-07T11:21:31;23.40;;;11.52;;
54261;SDS011;40174;52.364;6.452;2023-05-07T11:24:07;26.50;;;12.43;;
54261;SDS011;40174;52.364;6.452;2023-05-07T11:26:44;24.15;;;11.77;;
54261;SDS011;40174;52.364;6.452;2023-05-07T11:29:13;26.27;;;12.93;;
54261;SDS011;40174;52.364;6.452;2023-05-07T11:31:42;23.65;;;11.52;;
54261;SDS011;40174;52.364;6.452;2023-05-07T11:34:09;26.23;;;13.30;;
54261;SDS011;40174;52.364;6.452;2023-05-07T11:36:41;23.25;;;11.35;;
54261;SDS011;40174;52.364;6.452;2023-05-07T11:41:59;21.85;;;10.40;;
54261;SDS011;40174;52.364;6.452;2023-05-07T11:44:39;21.95;;;11.20;;
54261;SDS011;40174;52.364;6.452;2023-05-07T11:47:08;22.48;;;11.50;;
54261;SDS011;40174;52.364;6.452;2023-05-07T11:49:35;23.35;;;11.73;;
54261;SDS011;40174;52.364;6.452;2023-05-07T11:52:02;27.13;;;11.98;;
54261;SDS011;40174;52.364;6.452;2023-05-07T11:54:34;21.38;;;10.57;;
54261;SDS011;40174;52.364;6.452;2023-05-07T11:57:02;22.48;;;11.77;;
54261;SDS011;40174;52.364;6.452;2023-05-07T11:59:29;23.58;;;11.43;;
54261;SDS011;40174;52.364;6.452;2023-05-07T12:01:56;20.25;;;11.60;;
54261;SDS011;40174;52.364;6.452;2023-05-07T12:04:24;23.55;;;12.50;;
54261;SDS011;40174;52.364;6.452;2023-05-07T12:06:53;24.27;;;12.07;;
54261;SDS011;40174;52.364;6.452;2023-05-07T12:09:21;23.58;;;11.05;;
54261;SDS011;40174;52.364;6.452;2023-05-07T12:11:48;22.50;;;11.48;;
54261;SDS011;40174;52.364;6.452;2023-05-07T12:14:16;24.45;;;11.90;;
54261;SDS011;40174;52.364;6.452;2023-05-07T12:16:43;24.50;;;12.40;;
54261;SDS011;40174;52.364;6.452;2023-05-07T12:19:11;25.05;;;11.90;;
54261;SDS011;40174;52.364;6.452;2023-05-07T12:21:38;26.77;;;12.70;;
54261;SDS011;40174;52.364;6.452;2023-05-07T12:24:05;21.52;;;12.02;;
54261;SDS011;40174;52.364;6.452;2023-05-07T12:26:32;24.20;;;12.10;;
54261;SDS011;40174;52.364;6.452;2023-05-07T12:29:03;25.25;;;11.20;;
54261;SDS011;40174;52.364;6.452;2023-05-07T12:31:31;22.73;;;12.23;;
54261;SDS011;40174;52.364;6.452;2023-05-07T12:33:57;24.25;;;12.30;;
54261;SDS011;40174;52.364;6.452;2023-05-07T12:36:24;21.30;;;11.07;;
54261;SDS011;40174;52.364;6.452;2023-05-07T12:38:51;24.85;;;12.18;;
54261;SDS011;40174;52.364;6.452;2023-05-07T12:41:18;23.20;;;11.27;;
54261;SDS011;40174;52.364;6.452;2023-05-07T12:43:50;24.27;;;11.50;;
54261;SDS011;40174;52.364;6.452;2023-05-07T12:46:22;26.05;;;12.55;;
54261;SDS011;40174;52.364;6.452;2023-05-07T12:48:50;25.38;;;12.27;;
54261;SDS011;40174;52.364;6.452;2023-05-07T12:51:18;25.75;;;12.15;;
54261;SDS011;40174;52.364;6.452;2023-05-07T12:53:45;22.50;;;11.43;;
54261;SDS011;40174;52.364;6.452;2023-05-07T12:56:11;24.30;;;10.95;;
54261;SDS011;40174;52.364;6.452;2023-05-07T12:58:41;23.27;;;12.00;;
54261;SDS011;40174;52.364;6.452;2023-05-07T13:01:08;21.55;;;11.43;;
54261;SDS011;40174;52.364;6.452;2023-05-07T13:03:36;19.42;;;10.52;;
54261;SDS011;40174;52.364;6.452;2023-05-07T13:06:06;22.38;;;11.57;;
54261;SDS011;40174;52.364;6.452;2023-05-07T13:08:35;20.30;;;10.32;;
54261;SDS011;40174;52.364;6.452;2023-05-07T13:11:06;21.50;;;11.23;;
54261;SDS011;40174;52.364;6.452;2023-05-07T13:13:36;22.10;;;11.68;;
54261;SDS011;40174;52.364;6.452;2023-05-07T13:16:04;21.20;;;10.18;;
54261;SDS011;40174;52.364;6.452;2023-05-07T13:18:32;20.60;;;11.10;;
54261;SDS011;40174;52.364;6.452;2023-05-07T13:20:59;23.02;;;11.07;;
54261;SDS011;40174;52.364;6.452;2023-05-07T13:23:28;21.27;;;11.15;;
54261;SDS011;40174;52.364;6.452;2023-05-07T13:25:55;20.85;;;9.88;;
54261;SDS011;40174;52.364;6.452;2023-05-07T13:28:22;20.58;;;10.57;;
54261;SDS011;40174;52.364;6.452;2023-05-07T13:30:49;19.85;;;10.60;;
54261;SDS011;40174;52.364;6.452;2023-05-07T13:33:17;18.50;;;9.65;;
54261;SDS011;40174;52.364;6.452;2023-05-07T13:35:44;20.75;;;10.52;;
54261;SDS011;40174;52.364;6.452;2023-05-07T13:38:11;18.60;;;9.27;;
54261;SDS011;40174;52.364;6.452;2023-05-07T13:40:39;20.58;;;10.75;;
54261;SDS011;40174;52.364;6.452;2023-05-07T13:43:05;20.90;;;10.27;;
54261;SDS011;40174;52.364;6.452;2023-05-07T13:45:33;22.75;;;10.48;;
54261;SDS011;40174;52.364;6.452;2023-05-07T13:47:59;19.33;;;9.50;;
54261;SDS011;40174;52.364;6.452;2023-05-07T13:50:26;24.13;;;11.02;;
54261;SDS011;40174;52.364;6.452;2023-05-07T13:52:55;19.90;;;9.60;;
54261;SDS011;40174;52.364;6.452;2023-05-07T13:55:22;19.00;;;9.40;;
54261;SDS011;40174;52.364;6.452;2023-05-07T13:57:56;19.95;;;9.23;;
54261;SDS011;40174;52.364;6.452;2023-05-07T14:00:23;18.65;;;9.00;;
54261;SDS011;40174;52.364;6.452;2023-05-07T14:02:50;19.10;;;9.35;;
54261;SDS011;40174;52.364;6.452;2023-05-07T14:05:16;16.80;;;8.63;;
54261;SDS011;40174;52.364;6.452;2023-05-07T14:07:43;14.35;;;7.88;;
54261;SDS011;40174;52.364;6.452;2023-05-07T14:10:10;18.52;;;9.00;;
54261;SDS011;40174;52.364;6.452;2023-05-07T14:12:38;17.55;;;9.27;;
54261;SDS011;40174;52.364;6.452;2023-05-07T14:15:07;19.55;;;9.40;;
54261;SDS011;40174;52.364;6.452;2023-05-07T14:17:34;19.08;;;9.68;;
54261;SDS011;40174;52.364;6.452;2023-05-07T14:20:01;17.75;;;8.85;;
54261;SDS011;40174;52.364;6.452;2023-05-07T14:22:28;17.48;;;9.00;;
54261;SDS011;40174;52.364;6.452;2023-05-07T14:24:54;17.45;;;8.32;;
54261;SDS011;40174;52.364;6.452;2023-05-07T14:27:21;18.40;;;8.85;;
54261;SDS011;40174;52.364;6.452;2023-05-07T14:29:48;17.17;;;8.13;;
54261;SDS011;40174;52.364;6.452;2023-05-07T14:32:17;16.45;;;7.82;;
54261;SDS011;40174;52.364;6.452;2023-05-07T14:34:44;16.15;;;8.13;;
54261;SDS011;40174;52.364;6.452;2023-05-07T14:37:10;21.25;;;9.63;;
54261;SDS011;40174;52.364;6.452;2023-05-07T14:39:37;15.93;;;8.40;;
54261;SDS011;40174;52.364;6.452;2023-05-07T14:42:04;18.55;;;9.23;;
54261;SDS011;40174;52.364;6.452;2023-05-07T14:44:33;17.00;;;8.32;;
54261;SDS011;40174;52.364;6.452;2023-05-07T14:46:59;17.48;;;7.75;;
54261;SDS011;40174;52.364;6.452;2023-05-07T14:49:27;17.05;;;8.45;;
54261;SDS011;40174;52.364;6.452;2023-05-07T14:51:56;16.23;;;8.52;;
54261;SDS011;40174;52.364;6.452;2023-05-07T14:54:23;16.23;;;8.55;;
54261;SDS011;40174;52.364;6.452;2023-05-07T14:56:50;14.65;;;7.20;;